Aviation Digital Data Service (ADDS)

Output produced by METARs form (0846 UTC 23 May 2015)
found at http://www.aviationweather.gov/adds/metars/
 
KIPT 230754Z AUTO 22003KT 10SM CLR 06/M02 A3034 RMK AO2 SLP275 T00561017
KIPT 230654Z AUTO VRB03KT 10SM CLR 07/M03 A3032 RMK AO2 SLP269 T00671028
KIPT 230554Z AUTO 28004KT 10SM CLR 08/M05 A3027 RMK AO2 SLP252 T00831050 10172 20083 53017
KIPT 230454Z AUTO 28007KT 10SM CLR 10/M06 A3026 RMK AO2 SLP246 T01001056 402220072
KIPT 230354Z AUTO 29009KT 10SM CLR 11/M06 A3024 RMK AO2 SLP239 T01111056
KIPT 230254Z AUTO 30010KT 10SM CLR 13/M03 A3022 RMK AO2 SLP234 T01281028 51047
KIPT 230154Z 30010KT 10SM CLR 14/M01 A3018 RMK AO2 SLP221 T01391011
KIPT 230054Z 30010KT 10SM CLR 15/M02 A3014 RMK AO2 SLP204 T01501022
KIPT 222354Z 30011G19KT 10SM CLR 17/M04 A3008 RMK AO2 PK WND 29026/2258 SLP187 60001 T01721044 10222 20172 53035
KIPT 222254Z 29012G24KT 10SM CLR 19/M07 A3004 RMK AO2 PK WND 28026/2218 SLP171 T01941067
KIPT 222154Z 30019G25KT 10SM CLR 21/M05 A3001 RMK AO2 SLP161 T02111050
KIPT 222054Z 31016G28KT 10SM CLR 22/M04 A2998 RMK AO2 PK WND 28028/2048 SLP151 60001 T02221044 51003
KIPT 221954Z 24018G23KT 10SM FEW080 BKN100 19/06 A2997 RMK AO2 SLP149 T01940056
KIPT 221854Z 26013G19KT 10SM SCT070 BKN080 BKN100 19/05 A2998 RMK AO2 RAB12E23B40E53 SLP151 P0001 T01890050
KIPT 221754Z 25011KT 10SM FEW065 BKN090 BKN110 19/06 A2997 RMK AO2 SLP147 T01940056 10211 20106 56012
KIPT 221654Z 26008KT 10SM BKN055 BKN070 19/07 A2998 RMK AO2 SLP152 T01940067
KIPT 221554Z 26012G21KT 10SM FEW080 19/06 A2999 RMK AO2 SLP155 T01890061
KIPT 221454Z 25012G20KT 10SM FEW075 17/07 A3000 RMK AO2 SLP160 T01670067 53002
KIPT 221354Z 26007KT 10SM CLR 14/07 A3000 RMK AO2 SLP160 T01440067
KIPT 221254Z 26010KT 10SM CLR 13/06 A3000 RMK AO2 SLP159 T01280061
KIPT 221154Z 27011KT 10SM CLR 11/06 A3000 RMK AO2 SLP159 70002 T01060056 10106 20072 51017
KIPT 221054Z 27010KT 10SM CLR 09/06 A2998 RMK AO2 SLP154 T00890056
KIPT 220954Z AUTO 28008KT 10SM CLR 08/06 A2997 RMK AO2 SLP148 T00780056
KIPT 220854Z AUTO 27006KT 10SM CLR 08/06 A2995 RMK AO2 SLP141 T00830061 53005
KIPT 220754Z AUTO 28006KT 10SM CLR 09/07 A2993 RMK AO2 SLP137 T00890067
KIPT 220654Z AUTO 28007KT 10SM CLR 09/07 A2993 RMK AO2 SLP135 T00940072
KIPT 220554Z AUTO 28008KT 10SM BKN100 10/08 A2993 RMK AO2 SLP136 60001 T01000078 10122 20100 55003
KIPT 220454Z AUTO 28007KT 10SM SCT100 BKN120 10/08 A2993 RMK AO2 SLP135 T01000083 401390083
KIPT 220354Z AUTO 27009KT 10SM FEW012 OVC080 11/08 A2993 RMK AO2 RAE22 SLP136 P0000 T01060083
KIPT 220254Z AUTO 27008KT 10SM -RA BKN050 OVC065 11/08 A2994 RMK AO2 SLP139 P0001 60001 T01060083 50006
KIPT 220154Z 27005KT 10SM -RA FEW015 BKN055 OVC070 11/08 A2995 RMK AO2 RAB49 SLP141 P0000 T01060083
KIPT 220054Z 27005KT 10SM OVC070 11/08 A2993 RMK AO2 SLP136 T01110078
KIPT 212354Z 27006KT 10SM FEW041 OVC065 12/07 A2992 RMK AO2 SLP132 60000 T01220067 10133 20122 53003
KIPT 212254Z 27005KT 10SM OVC065 12/06 A2990 RMK AO2 SLP127 T01220061
KIPT 212154Z 28004KT 10SM OVC033 13/06 A2991 RMK AO2 SLP127 T01280056
KIPT 212054Z 32003KT 10SM BKN037 OVC047 13/06 A2991 RMK AO2 SLP129 60000 T01330056 56015